Deering (New), AK

20:25 AKDT le 25 octobre 2014 (GMT -0800)
Wien Memorial | Change Station
CLOSE
Current Station
Aéroport
Location: Kotzebue,
Altitude: 16 ft
Stations météo à proximité

Alt. 16 ft 66.88 °N, 162.60 °W | Updated 28 minutes ago

Light Snow
Neige légère
33 ° F
Paraît 27 ° F
N
7
Vent Variable Vent de SSO

Aujourd'hui
Haut(e) -- | Bas -- ° F
--% Risque de précip.
Hier
Haut(e) -- | Bas -- ° F
Precip. -- pouce
10:22 AM 6:46 PM
Lune montante, 6% visible
Pression 29.54 pouce
Visibilité 2.0 Miles terrestres
Nuages Couvert 600 ft
Refroidissement éolien 27 ° F
Point de rosée 32 ° F
Humidité 96%
Précipitations 0.27 pouce
Profondeur de la couche neigeuse Non disponible.
UV 0 sur 12
Pollen Non disponible.
Qualité de l'air Non disponible.
Flu Activity Local Activity
SPECI PAOT 260357Z 20006KT 2SM -SN BR OVC006 01/00 A2954 RMK AO2 P0000 T00060000

More Conditions Fewer Conditions

Pression 29.54 pouce
Visibilité 2.0 Miles terrestres
Nuages Couvert 600 ft
Refroidissement éolien 27 ° F
Point de rosée 32 ° F
Humidité 96%
Précipitations 0.27 pouce
Profondeur de la couche neigeuse Non disponible.
UV 0 sur 12
Pollen Non disponible.
Qualité de l'air Non disponible.
Flu Activity Local Activity
SPECI PAOT 260357Z 20006KT 2SM -SN BR OVC006 01/00 A2954 RMK AO2 P0000 T00060000

More Conditions Fewer Conditions

10-Day Weather Forecast

Almanac

Astronomie

Oct. 25, 2014 Lever Coucher
Temps réel 10:22 AKDT 18:46 AKDT
Crépuscule civil 09:27 AKDT 19:41 AKDT
Crépuscule nautique 08:26 AKDT 20:41 AKDT
Crépuscule astronomique 07:27 AKDT 21:41 AKDT
Lune 12:55 AKDT (10/25) 19:33 AKDT (10/25)
Durée de lumière visible 10h 14m
Longueur du jour
8h 23m
Tomorrow will be 7m 15s shorter.
Lune montante, 6% of the Moon is Illuminated
Oct 26
Lune montante
Oct 30
Premier quartier
Nov 6
Pleine lune
Nov 14
Dernier quartier
Nov 22
Nouveau

Les extrêmes de température d’hier

State Highs State Lows

Community

WunderPhotos

Upload Photos

1,765,110 Photos téléchargées !

Nearby

Qualité de l'air

Not available.

Épaisseur de neige

Station Depth Altitude
Rocky Point 3 in 500 ft
Gobblers Knob 3 in 2030 ft
Coldfoot 6 in 1040 ft
Atigun Pass 14 in 4800 ft
Imnaviat Creek 20 in 3050 ft

Activité sismique

Ville Distance Mag. Time & Date
No recent earthquake activity has been reported nearby.
Minimum magnitude displayed is 2.5.

Températures des eaux côtières

Lieu Température
Aucun rapport de station

Stations météo à proximité